Terminal Aerodrome Forecast
Issued by NWS

Home | Current Version | Previous Version | Text Only | Print | Product List | Glossary On
Versions: 1 2 3 4 5 6 7 8 9 10 11 12 13 14 15 16 17 18 19 20 21 22 23 24 25 26 27
000
FTUS41 KCTP 222340
TAFJST
TAF
KJST 222340Z 2300/2324 02008KT P6SM SCT035 BKN070
     FM230900 21012G18KT 4SM -RA BR OVC012
     FM231500 24013G23KT 4SM -SHRA BR OVC009
     FM232000 24013G23KT 2SM -SHRA BR OVC007=

USA.gov is the U.S. government's official web portal to all federal, state and local government web resources and services.